sensor_id;sensor_type;location;lat;lon;timestamp;temperature;humidity
36990;DHT22;22898;52.102;5.776;2024-03-23T00:52:15;15.00;99.90
36990;DHT22;22898;52.102;5.776;2024-03-23T00:54:41;15.20;99.90
36990;DHT22;22898;52.102;5.776;2024-03-23T00:57:07;15.30;99.90
36990;DHT22;22898;52.102;5.776;2024-03-23T00:59:33;15.10;99.90
36990;DHT22;22898;52.102;5.776;2024-03-23T01:01:58;15.00;99.90
36990;DHT22;22898;52.102;5.776;2024-03-23T01:04:24;14.80;99.90
36990;DHT22;22898;52.102;5.776;2024-03-23T01:06:50;15.10;99.90
36990;DHT22;22898;52.102;5.776;2024-03-23T01:09:15;15.00;99.90
36990;DHT22;22898;52.102;5.776;2024-03-23T01:11:41;14.80;99.90
36990;DHT22;22898;52.102;5.776;2024-03-23T01:14:07;15.10;99.90
36990;DHT22;22898;52.102;5.776;2024-03-23T01:16:32;15.40;99.90
36990;DHT22;22898;52.102;5.776;2024-03-23T01:18:58;15.40;99.90
36990;DHT22;22898;52.102;5.776;2024-03-23T01:21:24;15.30;99.90
36990;DHT22;22898;52.102;5.776;2024-03-23T01:23:49;15.20;99.90
36990;DHT22;22898;52.102;5.776;2024-03-23T01:26:15;15.20;99.90
36990;DHT22;22898;52.102;5.776;2024-03-23T01:28:41;14.90;99.90
36990;DHT22;22898;52.102;5.776;2024-03-23T01:31:07;14.30;99.90
36990;DHT22;22898;52.102;5.776;2024-03-23T01:33:32;13.90;99.90
36990;DHT22;22898;52.102;5.776;2024-03-23T01:35:58;14.10;99.90
36990;DHT22;22898;52.102;5.776;2024-03-23T01:38:24;14.50;99.90
36990;DHT22;22898;52.102;5.776;2024-03-23T01:40:49;14.70;99.90
36990;DHT22;22898;52.102;5.776;2024-03-23T01:43:15;14.60;99.90
36990;DHT22;22898;52.102;5.776;2024-03-23T01:45:40;14.60;99.90
36990;DHT22;22898;52.102;5.776;2024-03-23T01:48:06;14.70;99.90
36990;DHT22;22898;52.102;5.776;2024-03-23T01:50:32;14.60;99.90
36990;DHT22;22898;52.102;5.776;2024-03-23T01:53:01;14.20;99.90
36990;DHT22;22898;52.102;5.776;2024-03-23T01:55:27;13.90;99.90
36990;DHT22;22898;52.102;5.776;2024-03-23T01:57:56;13.70;99.90
36990;DHT22;22898;52.102;5.776;2024-03-23T02:00:22;13.80;99.90
36990;DHT22;22898;52.102;5.776;2024-03-23T02:02:48;14.00;99.90
36990;DHT22;22898;52.102;5.776;2024-03-23T02:05:14;14.20;99.90
36990;DHT22;22898;52.102;5.776;2024-03-23T02:07:41;14.30;99.90
36990;DHT22;22898;52.102;5.776;2024-03-23T02:10:07;14.30;99.90
36990;DHT22;22898;52.102;5.776;2024-03-23T02:12:33;14.20;99.90
36990;DHT22;22898;52.102;5.776;2024-03-23T02:14:59;13.80;99.90
36990;DHT22;22898;52.102;5.776;2024-03-23T02:17:25;13.60;99.90
36990;DHT22;22898;52.102;5.776;2024-03-23T02:19:51;13.50;99.90
36990;DHT22;22898;52.102;5.776;2024-03-23T02:22:16;13.70;99.90
36990;DHT22;22898;52.102;5.776;2024-03-23T02:24:42;13.60;99.90
36990;DHT22;22898;52.102;5.776;2024-03-23T02:27:08;13.40;99.90
36990;DHT22;22898;52.102;5.776;2024-03-23T02:29:34;13.40;99.90
36990;DHT22;22898;52.102;5.776;2024-03-23T02:31:59;13.40;99.90
36990;DHT22;22898;52.102;5.776;2024-03-23T02:34:25;13.50;99.90
36990;DHT22;22898;52.102;5.776;2024-03-23T02:36:51;13.60;99.90
36990;DHT22;22898;52.102;5.776;2024-03-23T02:39:16;13.90;99.90
36990;DHT22;22898;52.102;5.776;2024-03-23T02:41:42;13.90;99.90
36990;DHT22;22898;52.102;5.776;2024-03-23T02:44:08;13.90;99.90
36990;DHT22;22898;52.102;5.776;2024-03-23T02:46:37;14.10;99.90
36990;DHT22;22898;52.102;5.776;2024-03-23T02:49:03;14.30;99.90
36990;DHT22;22898;52.102;5.776;2024-03-23T02:51:30;14.30;99.90
36990;DHT22;22898;52.102;5.776;2024-03-23T02:53:55;14.00;99.90
36990;DHT22;22898;52.102;5.776;2024-03-23T02:56:21;13.80;99.90
36990;DHT22;22898;52.102;5.776;2024-03-23T02:58:47;13.60;99.90
36990;DHT22;22898;52.102;5.776;2024-03-23T03:01:12;13.30;99.90
36990;DHT22;22898;52.102;5.776;2024-03-23T03:03:38;13.10;99.90
36990;DHT22;22898;52.102;5.776;2024-03-23T03:06:04;13.20;99.90
36990;DHT22;22898;52.102;5.776;2024-03-23T03:08:30;13.00;99.90
36990;DHT22;22898;52.102;5.776;2024-03-23T03:10:55;12.60;99.90
36990;DHT22;22898;52.102;5.776;2024-03-23T03:13:21;12.50;99.90
36990;DHT22;22898;52.102;5.776;2024-03-23T03:15:46;12.60;99.90
36990;DHT22;22898;52.102;5.776;2024-03-23T03:18:12;12.50;99.90
36990;DHT22;22898;52.102;5.776;2024-03-23T03:20:41;12.60;99.90
36990;DHT22;22898;52.102;5.776;2024-03-23T03:23:07;12.50;99.90
36990;DHT22;22898;52.102;5.776;2024-03-23T03:25:33;12.30;99.90
36990;DHT22;22898;52.102;5.776;2024-03-23T03:27:59;12.20;99.90
36990;DHT22;22898;52.102;5.776;2024-03-23T03:30:25;11.90;99.90
36990;DHT22;22898;52.102;5.776;2024-03-23T03:32:53;11.50;99.90
36990;DHT22;22898;52.102;5.776;2024-03-23T03:35:20;11.50;99.90
36990;DHT22;22898;52.102;5.776;2024-03-23T03:37:49;11.50;99.90
36990;DHT22;22898;52.102;5.776;2024-03-23T03:40:15;11.30;99.90
36990;DHT22;22898;52.102;5.776;2024-03-23T03:42:41;11.30;99.90
36990;DHT22;22898;52.102;5.776;2024-03-23T03:45:07;11.20;99.90
36990;DHT22;22898;52.102;5.776;2024-03-23T03:47:33;11.30;99.90
36990;DHT22;22898;52.102;5.776;2024-03-23T03:49:58;11.40;99.90
36990;DHT22;22898;52.102;5.776;2024-03-23T03:52:24;11.60;99.90
36990;DHT22;22898;52.102;5.776;2024-03-23T03:54:50;11.50;99.90
36990;DHT22;22898;52.102;5.776;2024-03-23T03:57:15;11.40;99.90
36990;DHT22;22898;52.102;5.776;2024-03-23T03:59:41;11.60;99.90
36990;DHT22;22898;52.102;5.776;2024-03-23T04:02:06;11.40;99.90
36990;DHT22;22898;52.102;5.776;2024-03-23T04:04:32;11.30;99.90
36990;DHT22;22898;52.102;5.776;2024-03-23T04:07:01;11.50;99.90
36990;DHT22;22898;52.102;5.776;2024-03-23T04:09:27;11.60;99.90
36990;DHT22;22898;52.102;5.776;2024-03-23T04:11:54;11.70;99.90
36990;DHT22;22898;52.102;5.776;2024-03-23T04:14:19;11.40;99.90
36990;DHT22;22898;52.102;5.776;2024-03-23T04:16:45;11.20;99.90
36990;DHT22;22898;52.102;5.776;2024-03-23T04:19:11;11.20;99.90
36990;DHT22;22898;52.102;5.776;2024-03-23T04:21:37;11.10;99.90
36990;DHT22;22898;52.102;5.776;2024-03-23T04:24:04;11.10;99.90
36990;DHT22;22898;52.102;5.776;2024-03-23T04:26:29;11.30;99.90
36990;DHT22;22898;52.102;5.776;2024-03-23T04:28:55;11.70;99.90
36990;DHT22;22898;52.102;5.776;2024-03-23T04:31:20;12.00;99.90
36990;DHT22;22898;52.102;5.776;2024-03-23T04:33:47;12.30;99.90
36990;DHT22;22898;52.102;5.776;2024-03-23T04:36:12;12.70;99.90
36990;DHT22;22898;52.102;5.776;2024-03-23T04:38:38;12.80;99.90
36990;DHT22;22898;52.102;5.776;2024-03-23T04:41:04;12.60;99.90
36990;DHT22;22898;52.102;5.776;2024-03-23T04:43:29;12.70;99.90
36990;DHT22;22898;52.102;5.776;2024-03-23T04:45:55;12.50;99.90
36990;DHT22;22898;52.102;5.776;2024-03-23T04:48:21;12.50;99.90
36990;DHT22;22898;52.102;5.776;2024-03-23T04:50:48;12.70;99.90
36990;DHT22;22898;52.102;5.776;2024-03-23T04:53:14;12.90;99.90
36990;DHT22;22898;52.102;5.776;2024-03-23T04:55:41;12.80;99.90
36990;DHT22;22898;52.102;5.776;2024-03-23T04:58:07;12.80;99.90
36990;DHT22;22898;52.102;5.776;2024-03-23T05:00:33;13.00;99.90
36990;DHT22;22898;52.102;5.776;2024-03-23T05:02:58;13.10;99.90
36990;DHT22;22898;52.102;5.776;2024-03-23T05:05:24;13.20;99.90
36990;DHT22;22898;52.102;5.776;2024-03-23T05:07:49;13.20;99.90
36990;DHT22;22898;52.102;5.776;2024-03-23T05:10:15;13.20;99.90
36990;DHT22;22898;52.102;5.776;2024-03-23T05:12:42;13.20;99.90
36990;DHT22;22898;52.102;5.776;2024-03-23T05:15:07;13.00;99.90
36990;DHT22;22898;52.102;5.776;2024-03-23T05:17:33;12.50;99.90
36990;DHT22;22898;52.102;5.776;2024-03-23T05:19:59;12.50;99.90
36990;DHT22;22898;52.102;5.776;2024-03-23T05:22:25;11.90;99.90
36990;DHT22;22898;52.102;5.776;2024-03-23T05:24:50;11.80;99.90
36990;DHT22;22898;52.102;5.776;2024-03-23T05:27:16;12.30;99.90
36990;DHT22;22898;52.102;5.776;2024-03-23T05:29:42;12.30;99.90
36990;DHT22;22898;52.102;5.776;2024-03-23T05:32:07;11.80;99.90
36990;DHT22;22898;52.102;5.776;2024-03-23T05:34:33;11.30;99.90
36990;DHT22;22898;52.102;5.776;2024-03-23T05:36:59;10.30;99.90
36990;DHT22;22898;52.102;5.776;2024-03-23T05:39:25;10.30;99.90
36990;DHT22;22898;52.102;5.776;2024-03-23T05:41:50;10.50;99.90
36990;DHT22;22898;52.102;5.776;2024-03-23T05:44:16;10.20;99.90
36990;DHT22;22898;52.102;5.776;2024-03-23T05:46:42;10.00;99.90
36990;DHT22;22898;52.102;5.776;2024-03-23T05:49:08;9.80;99.90
36990;DHT22;22898;52.102;5.776;2024-03-23T05:51:34;10.20;99.90
36990;DHT22;22898;52.102;5.776;2024-03-23T05:54:00;9.90;99.90
36990;DHT22;22898;52.102;5.776;2024-03-23T05:56:26;9.80;99.90
36990;DHT22;22898;52.102;5.776;2024-03-23T05:58:52;9.50;99.90
36990;DHT22;22898;52.102;5.776;2024-03-23T06:01:18;9.40;99.90
36990;DHT22;22898;52.102;5.776;2024-03-23T06:03:43;9.50;99.90
36990;DHT22;22898;52.102;5.776;2024-03-23T06:06:10;9.70;99.90
36990;DHT22;22898;52.102;5.776;2024-03-23T06:08:37;9.80;99.90
36990;DHT22;22898;52.102;5.776;2024-03-23T06:11:04;9.40;99.90
36990;DHT22;22898;52.102;5.776;2024-03-23T06:13:31;9.40;99.90
36990;DHT22;22898;52.102;5.776;2024-03-23T06:15:57;9.20;99.90
36990;DHT22;22898;52.102;5.776;2024-03-23T06:18:24;9.50;99.90
36990;DHT22;22898;52.102;5.776;2024-03-23T06:20:49;9.40;99.90
36990;DHT22;22898;52.102;5.776;2024-03-23T06:23:15;9.50;99.90
36990;DHT22;22898;52.102;5.776;2024-03-23T06:25:42;9.70;99.90
36990;DHT22;22898;52.102;5.776;2024-03-23T06:28:08;9.90;99.90
36990;DHT22;22898;52.102;5.776;2024-03-23T06:30:34;9.70;99.90
36990;DHT22;22898;52.102;5.776;2024-03-23T06:32:59;9.60;99.90
36990;DHT22;22898;52.102;5.776;2024-03-23T06:35:25;9.80;99.90
36990;DHT22;22898;52.102;5.776;2024-03-23T06:37:50;9.80;99.90
36990;DHT22;22898;52.102;5.776;2024-03-23T06:40:16;9.60;99.90
36990;DHT22;22898;52.102;5.776;2024-03-23T06:42:42;9.30;99.90
36990;DHT22;22898;52.102;5.776;2024-03-23T06:45:08;9.50;99.90
36990;DHT22;22898;52.102;5.776;2024-03-23T06:47:33;9.80;99.90
36990;DHT22;22898;52.102;5.776;2024-03-23T06:50:03;10.10;99.90
36990;DHT22;22898;52.102;5.776;2024-03-23T06:52:29;10.10;99.90
36990;DHT22;22898;52.102;5.776;2024-03-23T06:54:55;10.20;99.90
36990;DHT22;22898;52.102;5.776;2024-03-23T06:57:21;10.30;99.90
36990;DHT22;22898;52.102;5.776;2024-03-23T06:59:47;10.40;99.90
36990;DHT22;22898;52.102;5.776;2024-03-23T07:02:12;10.00;99.90
36990;DHT22;22898;52.102;5.776;2024-03-23T07:04:38;9.80;99.90
36990;DHT22;22898;52.102;5.776;2024-03-23T07:07:05;9.80;99.90
36990;DHT22;22898;52.102;5.776;2024-03-23T07:09:31;9.80;99.90
36990;DHT22;22898;52.102;5.776;2024-03-23T07:11:57;10.10;99.90
36990;DHT22;22898;52.102;5.776;2024-03-23T07:14:23;10.30;99.90
36990;DHT22;22898;52.102;5.776;2024-03-23T07:16:49;10.20;99.90
36990;DHT22;22898;52.102;5.776;2024-03-23T07:19:18;10.00;99.90
36990;DHT22;22898;52.102;5.776;2024-03-23T07:21:44;9.50;99.90
36990;DHT22;22898;52.102;5.776;2024-03-23T07:24:13;9.00;99.90
36990;DHT22;22898;52.102;5.776;2024-03-23T07:26:39;9.40;99.90
36990;DHT22;22898;52.102;5.776;2024-03-23T07:29:05;9.30;99.90
36990;DHT22;22898;52.102;5.776;2024-03-23T07:31:30;9.40;99.90
36990;DHT22;22898;52.102;5.776;2024-03-23T07:33:56;9.50;99.90
36990;DHT22;22898;52.102;5.776;2024-03-23T07:36:21;9.50;99.90
36990;DHT22;22898;52.102;5.776;2024-03-23T07:38:47;9.60;99.90
36990;DHT22;22898;52.102;5.776;2024-03-23T07:41:17;10.10;99.90
36990;DHT22;22898;52.102;5.776;2024-03-23T07:43:44;9.80;99.90
36990;DHT22;22898;52.102;5.776;2024-03-23T07:46:15;9.90;99.90
36990;DHT22;22898;52.102;5.776;2024-03-23T07:48:40;9.60;99.90
36990;DHT22;22898;52.102;5.776;2024-03-23T07:51:16;9.40;99.90
36990;DHT22;22898;52.102;5.776;2024-03-23T07:53:43;9.50;99.90
36990;DHT22;22898;52.102;5.776;2024-03-23T07:56:11;9.90;99.90
36990;DHT22;22898;52.102;5.776;2024-03-23T07:58:37;10.20;99.90
36990;DHT22;22898;52.102;5.776;2024-03-23T08:01:13;9.80;99.90
36990;DHT22;22898;52.102;5.776;2024-03-23T08:03:41;9.50;99.90
36990;DHT22;22898;52.102;5.776;2024-03-23T08:08:34;9.80;99.90
36990;DHT22;22898;52.102;5.776;2024-03-23T08:11:00;9.70;99.90
36990;DHT22;22898;52.102;5.776;2024-03-23T08:13:26;9.90;99.90
36990;DHT22;22898;52.102;5.776;2024-03-23T08:15:51;10.20;99.90
36990;DHT22;22898;52.102;5.776;2024-03-23T08:18:17;10.30;99.90
36990;DHT22;22898;52.102;5.776;2024-03-23T08:20:43;10.40;99.90
36990;DHT22;22898;52.102;5.776;2024-03-23T08:23:08;10.50;99.90
36990;DHT22;22898;52.102;5.776;2024-03-23T08:25:35;10.50;99.90
36990;DHT22;22898;52.102;5.776;2024-03-23T08:28:01;10.60;99.90
36990;DHT22;22898;52.102;5.776;2024-03-23T08:30:28;10.50;99.90
36990;DHT22;22898;52.102;5.776;2024-03-23T08:32:55;10.70;99.90
36990;DHT22;22898;52.102;5.776;2024-03-23T08:35:20;10.40;99.90
36990;DHT22;22898;52.102;5.776;2024-03-23T08:37:46;10.10;99.90
36990;DHT22;22898;52.102;5.776;2024-03-23T08:40:12;10.50;99.90
36990;DHT22;22898;52.102;5.776;2024-03-23T08:42:37;10.70;99.90
36990;DHT22;22898;52.102;5.776;2024-03-23T08:45:03;10.60;99.90
36990;DHT22;22898;52.102;5.776;2024-03-23T08:47:29;10.10;99.90
36990;DHT22;22898;52.102;5.776;2024-03-23T08:49:55;10.20;99.90
36990;DHT22;22898;52.102;5.776;2024-03-23T08:52:21;10.50;99.90
36990;DHT22;22898;52.102;5.776;2024-03-23T08:54:48;10.40;99.90
36990;DHT22;22898;52.102;5.776;2024-03-23T08:57:14;10.50;99.90
36990;DHT22;22898;52.102;5.776;2024-03-23T08:59:39;10.90;99.90
36990;DHT22;22898;52.102;5.776;2024-03-23T09:02:05;10.80;99.90
36990;DHT22;22898;52.102;5.776;2024-03-23T09:04:31;11.00;99.90
36990;DHT22;22898;52.102;5.776;2024-03-23T09:06:57;10.90;99.90
36990;DHT22;22898;52.102;5.776;2024-03-23T09:09:24;11.20;99.90
36990;DHT22;22898;52.102;5.776;2024-03-23T09:11:49;10.90;99.90
36990;DHT22;22898;52.102;5.776;2024-03-23T09:14:15;10.40;99.90
36990;DHT22;22898;52.102;5.776;2024-03-23T09:16:41;10.30;99.90
36990;DHT22;22898;52.102;5.776;2024-03-23T09:19:06;10.40;99.90
36990;DHT22;22898;52.102;5.776;2024-03-23T09:21:32;10.80;99.90
36990;DHT22;22898;52.102;5.776;2024-03-23T09:23:58;11.30;99.90
36990;DHT22;22898;52.102;5.776;2024-03-23T09:26:24;10.80;99.90
36990;DHT22;22898;52.102;5.776;2024-03-23T09:28:49;10.70;99.90
36990;DHT22;22898;52.102;5.776;2024-03-23T09:31:15;10.80;99.90
36990;DHT22;22898;52.102;5.776;2024-03-23T09:33:41;10.50;99.90
36990;DHT22;22898;52.102;5.776;2024-03-23T09:36:07;10.80;99.90
36990;DHT22;22898;52.102;5.776;2024-03-23T09:38:34;11.50;99.90
36990;DHT22;22898;52.102;5.776;2024-03-23T09:41:00;11.80;99.90
36990;DHT22;22898;52.102;5.776;2024-03-23T09:43:26;11.80;99.90
36990;DHT22;22898;52.102;5.776;2024-03-23T09:45:52;11.50;99.90
36990;DHT22;22898;52.102;5.776;2024-03-23T09:48:18;11.20;99.90
36990;DHT22;22898;52.102;5.776;2024-03-23T09:50:44;11.20;99.90
36990;DHT22;22898;52.102;5.776;2024-03-23T09:53:14;10.80;99.90
36990;DHT22;22898;52.102;5.776;2024-03-23T09:55:42;10.90;99.90
36990;DHT22;22898;52.102;5.776;2024-03-23T09:58:08;10.80;99.90
36990;DHT22;22898;52.102;5.776;2024-03-23T10:00:37;10.70;99.90
36990;DHT22;22898;52.102;5.776;2024-03-23T10:03:04;11.10;99.90
36990;DHT22;22898;52.102;5.776;2024-03-23T10:05:31;11.80;99.90
36990;DHT22;22898;52.102;5.776;2024-03-23T10:10:41;12.10;99.90
36990;DHT22;22898;52.102;5.776;2024-03-23T10:13:06;11.60;99.90
36990;DHT22;22898;52.102;5.776;2024-03-23T10:15:34;11.30;99.90
36990;DHT22;22898;52.102;5.776;2024-03-23T10:18:17;10.70;99.90
36990;DHT22;22898;52.102;5.776;2024-03-23T10:20:45;9.90;99.90
36990;DHT22;22898;52.102;5.776;2024-03-23T10:23:18;9.90;99.90
36990;DHT22;22898;52.102;5.776;2024-03-23T10:25:44;10.20;99.90
36990;DHT22;22898;52.102;5.776;2024-03-23T10:28:11;10.20;99.90
36990;DHT22;22898;52.102;5.776;2024-03-23T10:30:37;10.50;99.90
36990;DHT22;22898;52.102;5.776;2024-03-23T10:33:11;10.50;99.90
36990;DHT22;22898;52.102;5.776;2024-03-23T10:35:38;10.50;99.90
36990;DHT22;22898;52.102;5.776;2024-03-23T10:38:07;10.80;99.90
36990;DHT22;22898;52.102;5.776;2024-03-23T10:40:36;10.40;99.90
36990;DHT22;22898;52.102;5.776;2024-03-23T10:43:06;10.50;99.90
36990;DHT22;22898;52.102;5.776;2024-03-23T10:45:33;10.90;99.90
36990;DHT22;22898;52.102;5.776;2024-03-23T10:47:59;11.30;99.90
36990;DHT22;22898;52.102;5.776;2024-03-23T10:50:25;11.80;99.90
36990;DHT22;22898;52.102;5.776;2024-03-23T10:52:52;12.20;99.90
36990;DHT22;22898;52.102;5.776;2024-03-23T10:55:19;11.20;99.90
36990;DHT22;22898;52.102;5.776;2024-03-23T10:57:54;10.20;99.90
36990;DHT22;22898;52.102;5.776;2024-03-23T11:00:21;10.10;99.90
36990;DHT22;22898;52.102;5.776;2024-03-23T11:02:48;10.40;99.90
36990;DHT22;22898;52.102;5.776;2024-03-23T11:05:40;10.60;99.90
36990;DHT22;22898;52.102;5.776;2024-03-23T11:08:30;10.90;99.90
36990;DHT22;22898;52.102;5.776;2024-03-23T11:11:18;11.50;99.90
36990;DHT22;22898;52.102;5.776;2024-03-23T11:13:47;11.50;99.90
36990;DHT22;22898;52.102;5.776;2024-03-23T11:16:26;11.40;99.90
36990;DHT22;22898;52.102;5.776;2024-03-23T11:19:33;10.90;99.90
36990;DHT22;22898;52.102;5.776;2024-03-23T11:21:59;9.90;99.90
36990;DHT22;22898;52.102;5.776;2024-03-23T11:24:25;9.10;99.90
36990;DHT22;22898;52.102;5.776;2024-03-23T11:26:51;8.90;99.90
36990;DHT22;22898;52.102;5.776;2024-03-23T11:29:17;9.30;99.90
36990;DHT22;22898;52.102;5.776;2024-03-23T11:31:50;9.70;99.90
36990;DHT22;22898;52.102;5.776;2024-03-23T11:34:17;9.40;99.90
36990;DHT22;22898;52.102;5.776;2024-03-23T11:36:43;9.50;99.90
36990;DHT22;22898;52.102;5.776;2024-03-23T11:39:16;9.90;99.90
36990;DHT22;22898;52.102;5.776;2024-03-23T11:41:53;10.10;99.90
36990;DHT22;22898;52.102;5.776;2024-03-23T11:44:20;10.20;99.90
36990;DHT22;22898;52.102;5.776;2024-03-23T11:46:46;10.20;99.90
36990;DHT22;22898;52.102;5.776;2024-03-23T11:49:29;10.60;99.90
36990;DHT22;22898;52.102;5.776;2024-03-23T11:51:56;10.90;99.90
36990;DHT22;22898;52.102;5.776;2024-03-23T11:54:26;10.90;99.90
36990;DHT22;22898;52.102;5.776;2024-03-23T11:57:01;11.00;99.90
36990;DHT22;22898;52.102;5.776;2024-03-23T11:59:40;10.90;99.90
36990;DHT22;22898;52.102;5.776;2024-03-23T12:02:07;10.90;99.90
36990;DHT22;22898;52.102;5.776;2024-03-23T12:04:32;10.90;99.90
36990;DHT22;22898;52.102;5.776;2024-03-23T12:07:17;11.30;99.90
36990;DHT22;22898;52.102;5.776;2024-03-23T12:10:02;11.60;99.90
36990;DHT22;22898;52.102;5.776;2024-03-23T12:12:28;12.00;99.90
36990;DHT22;22898;52.102;5.776;2024-03-23T12:15:07;12.00;99.90
36990;DHT22;22898;52.102;5.776;2024-03-23T12:17:34;11.50;99.90
36990;DHT22;22898;52.102;5.776;2024-03-23T12:20:01;11.30;99.90
36990;DHT22;22898;52.102;5.776;2024-03-23T12:22:27;11.10;99.90
36990;DHT22;22898;52.102;5.776;2024-03-23T12:24:54;11.40;99.90
36990;DHT22;22898;52.102;5.776;2024-03-23T12:27:20;11.30;99.90
36990;DHT22;22898;52.102;5.776;2024-03-23T12:29:46;12.00;99.90
36990;DHT22;22898;52.102;5.776;2024-03-23T12:32:13;12.60;99.90
36990;DHT22;22898;52.102;5.776;2024-03-23T12:34:39;12.10;99.90
36990;DHT22;22898;52.102;5.776;2024-03-23T12:37:04;11.80;99.90
36990;DHT22;22898;52.102;5.776;2024-03-23T12:39:32;11.90;99.90
36990;DHT22;22898;52.102;5.776;2024-03-23T12:41:57;12.00;99.90
36990;DHT22;22898;52.102;5.776;2024-03-23T12:44:23;11.90;99.90
36990;DHT22;22898;52.102;5.776;2024-03-23T12:46:49;11.70;99.90
36990;DHT22;22898;52.102;5.776;2024-03-23T12:49:14;11.40;99.90
36990;DHT22;22898;52.102;5.776;2024-03-23T12:51:48;11.60;99.90
36990;DHT22;22898;52.102;5.776;2024-03-23T12:54:18;12.30;99.90
36990;DHT22;22898;52.102;5.776;2024-03-23T12:56:45;12.30;99.90
36990;DHT22;22898;52.102;5.776;2024-03-23T12:59:14;11.80;99.90
36990;DHT22;22898;52.102;5.776;2024-03-23T13:01:40;11.70;99.90
36990;DHT22;22898;52.102;5.776;2024-03-23T13:04:06;11.80;99.90
36990;DHT22;22898;52.102;5.776;2024-03-23T13:06:32;11.80;99.90
36990;DHT22;22898;52.102;5.776;2024-03-23T13:09:02;11.70;99.90
36990;DHT22;22898;52.102;5.776;2024-03-23T13:11:29;11.70;99.90
36990;DHT22;22898;52.102;5.776;2024-03-23T13:13:55;12.00;99.90
36990;DHT22;22898;52.102;5.776;2024-03-23T13:16:20;11.90;99.90
36990;DHT22;22898;52.102;5.776;2024-03-23T13:18:46;12.00;99.90
36990;DHT22;22898;52.102;5.776;2024-03-23T13:21:12;12.00;99.90
36990;DHT22;22898;52.102;5.776;2024-03-23T13:23:37;12.20;99.90
36990;DHT22;22898;52.102;5.776;2024-03-23T13:26:05;11.70;99.90
36990;DHT22;22898;52.102;5.776;2024-03-23T13:28:31;11.60;99.90
36990;DHT22;22898;52.102;5.776;2024-03-23T13:30:57;11.70;99.90
36990;DHT22;22898;52.102;5.776;2024-03-23T13:33:29;12.00;99.90
36990;DHT22;22898;52.102;5.776;2024-03-23T13:35:55;12.50;99.90
36990;DHT22;22898;52.102;5.776;2024-03-23T13:38:24;12.60;99.90
36990;DHT22;22898;52.102;5.776;2024-03-23T13:40:54;12.00;99.90
36990;DHT22;22898;52.102;5.776;2024-03-23T13:43:20;11.60;99.90
36990;DHT22;22898;52.102;5.776;2024-03-23T13:45:56;11.50;99.90
36990;DHT22;22898;52.102;5.776;2024-03-23T13:48:26;11.50;99.90
36990;DHT22;22898;52.102;5.776;2024-03-23T13:51:04;11.10;99.90
36990;DHT22;22898;52.102;5.776;2024-03-23T13:53:31;10.90;99.90
36990;DHT22;22898;52.102;5.776;2024-03-23T13:55:58;10.50;99.90
36990;DHT22;22898;52.102;5.776;2024-03-23T13:58:23;10.00;99.90
36990;DHT22;22898;52.102;5.776;2024-03-23T14:00:51;10.00;99.90
36990;DHT22;22898;52.102;5.776;2024-03-23T14:03:17;10.60;99.90
36990;DHT22;22898;52.102;5.776;2024-03-23T14:05:44;11.10;99.90
36990;DHT22;22898;52.102;5.776;2024-03-23T14:08:10;11.20;99.90
36990;DHT22;22898;52.102;5.776;2024-03-23T14:10:39;11.20;99.90
36990;DHT22;22898;52.102;5.776;2024-03-23T14:13:05;11.40;99.90
36990;DHT22;22898;52.102;5.776;2024-03-23T14:15:31;11.10;99.90
36990;DHT22;22898;52.102;5.776;2024-03-23T14:17:56;11.40;99.90
36990;DHT22;22898;52.102;5.776;2024-03-23T14:20:23;11.60;99.90
36990;DHT22;22898;52.102;5.776;2024-03-23T14:22:49;11.80;99.90
36990;DHT22;22898;52.102;5.776;2024-03-23T14:25:15;11.90;99.90
36990;DHT22;22898;52.102;5.776;2024-03-23T14:27:41;12.00;99.90
36990;DHT22;22898;52.102;5.776;2024-03-23T14:30:07;12.00;99.90
36990;DHT22;22898;52.102;5.776;2024-03-23T14:32:32;12.00;99.90
36990;DHT22;22898;52.102;5.776;2024-03-23T14:35:01;11.50;99.90
36990;DHT22;22898;52.102;5.776;2024-03-23T14:37:27;11.40;99.90
36990;DHT22;22898;52.102;5.776;2024-03-23T14:39:52;11.40;99.90
36990;DHT22;22898;52.102;5.776;2024-03-23T14:42:18;11.10;99.90
36990;DHT22;22898;52.102;5.776;2024-03-23T14:44:44;11.00;99.90
36990;DHT22;22898;52.102;5.776;2024-03-23T14:47:09;11.60;99.90
36990;DHT22;22898;52.102;5.776;2024-03-23T14:49:36;11.80;99.90
36990;DHT22;22898;52.102;5.776;2024-03-23T14:52:01;12.40;99.90
36990;DHT22;22898;52.102;5.776;2024-03-23T14:54:27;12.30;99.90
36990;DHT22;22898;52.102;5.776;2024-03-23T14:56:53;12.20;99.90
36990;DHT22;22898;52.102;5.776;2024-03-23T14:59:18;11.70;99.90
36990;DHT22;22898;52.102;5.776;2024-03-23T15:01:46;12.00;99.90
36990;DHT22;22898;52.102;5.776;2024-03-23T15:04:12;12.30;99.90
36990;DHT22;22898;52.102;5.776;2024-03-23T15:06:37;12.40;99.90
36990;DHT22;22898;52.102;5.776;2024-03-23T15:09:03;12.10;99.90
36990;DHT22;22898;52.102;5.776;2024-03-23T15:11:33;12.20;99.90
36990;DHT22;22898;52.102;5.776;2024-03-23T15:13:58;12.80;99.90
36990;DHT22;22898;52.102;5.776;2024-03-23T15:16:24;12.70;99.90
36990;DHT22;22898;52.102;5.776;2024-03-23T15:18:50;12.60;99.90
36990;DHT22;22898;52.102;5.776;2024-03-23T15:21:15;12.60;99.90
36990;DHT22;22898;52.102;5.776;2024-03-23T15:23:46;12.00;99.90
36990;DHT22;22898;52.102;5.776;2024-03-23T15:26:12;12.00;99.90
36990;DHT22;22898;52.102;5.776;2024-03-23T15:28:37;11.90;99.90
36990;DHT22;22898;52.102;5.776;2024-03-23T15:31:10;11.00;99.90
36990;DHT22;22898;52.102;5.776;2024-03-23T15:33:36;10.40;99.90
36990;DHT22;22898;52.102;5.776;2024-03-23T15:36:03;10.80;99.90
36990;DHT22;22898;52.102;5.776;2024-03-23T15:38:30;11.10;99.90
36990;DHT22;22898;52.102;5.776;2024-03-23T15:40:56;10.80;99.90
36990;DHT22;22898;52.102;5.776;2024-03-23T15:43:22;10.90;99.90
36990;DHT22;22898;52.102;5.776;2024-03-23T15:48:20;11.10;99.90
36990;DHT22;22898;52.102;5.776;2024-03-23T15:50:53;11.50;99.90
36990;DHT22;22898;52.102;5.776;2024-03-23T15:53:20;11.80;99.90
36990;DHT22;22898;52.102;5.776;2024-03-23T15:56:02;12.00;99.90
36990;DHT22;22898;52.102;5.776;2024-03-23T15:58:30;11.70;99.90
36990;DHT22;22898;52.102;5.776;2024-03-23T16:01:01;11.90;99.90
36990;DHT22;22898;52.102;5.776;2024-03-23T16:03:27;11.60;99.90
36990;DHT22;22898;52.102;5.776;2024-03-23T16:06:00;11.40;99.90
36990;DHT22;22898;52.102;5.776;2024-03-23T16:08:26;11.10;99.90
36990;DHT22;22898;52.102;5.776;2024-03-23T16:10:53;11.00;99.90
36990;DHT22;22898;52.102;5.776;2024-03-23T16:13:19;11.10;99.90
36990;DHT22;22898;52.102;5.776;2024-03-23T16:15:54;11.00;99.90
36990;DHT22;22898;52.102;5.776;2024-03-23T16:18:19;11.00;99.90
36990;DHT22;22898;52.102;5.776;2024-03-23T16:20:56;11.30;99.90
36990;DHT22;22898;52.102;5.776;2024-03-23T16:23:21;10.90;99.90
36990;DHT22;22898;52.102;5.776;2024-03-23T16:25:49;10.80;99.90
36990;DHT22;22898;52.102;5.776;2024-03-23T16:28:22;11.30;99.90
36990;DHT22;22898;52.102;5.776;2024-03-23T16:31:06;10.80;99.90